createdAt,value
2019-04-09T00:00:42.039Z,7.75
2019-04-09T00:03:15.486Z,6.80
2019-04-09T00:05:47.993Z,7.15
2019-04-09T00:08:18.978Z,7.20
2019-04-09T00:10:49.539Z,6.20
2019-04-09T00:13:19.918Z,7.00
2019-04-09T00:15:50.279Z,6.43
2019-04-09T00:18:21.045Z,7.37
2019-04-09T00:20:51.557Z,6.78
2019-04-09T00:23:22.487Z,6.57
2019-04-09T00:25:53.363Z,6.80
2019-04-09T00:28:24.898Z,6.87
2019-04-09T00:30:55.983Z,7.50
2019-04-09T00:33:26.362Z,6.40
2019-04-09T00:35:57.088Z,7.50
2019-04-09T00:38:27.602Z,7.47
2019-04-09T00:40:57.933Z,7.53
2019-04-09T00:43:28.317Z,7.70
2019-04-09T00:45:58.745Z,6.80
2019-04-09T00:48:29.708Z,8.27
2019-04-09T00:51:00.174Z,7.37
2019-04-09T00:53:30.530Z,7.90
2019-04-09T00:56:00.885Z,7.05
2019-04-09T00:58:31.230Z,6.75
2019-04-09T01:01:06.113Z,7.25
2019-04-09T01:03:36.705Z,7.27
2019-04-09T01:06:07.135Z,6.92
2019-04-09T01:08:37.937Z,7.43
2019-04-09T01:11:08.434Z,8.10
2019-04-09T01:13:38.781Z,8.30
2019-04-09T01:16:09.492Z,7.77
2019-04-09T01:18:39.975Z,8.20
2019-04-09T01:21:10.413Z,8.03
2019-04-09T01:23:40.769Z,8.70
2019-04-09T01:26:22.270Z,7.75
2019-04-09T01:29:09.633Z,8.77
2019-04-09T01:32:03.459Z,7.10
2019-04-09T01:34:52.832Z,7.67
2019-04-09T01:37:42.187Z,7.00
2019-04-09T01:40:32.079Z,8.10
2019-04-09T01:43:39.561Z,7.17
2019-04-09T01:46:27.622Z,8.63
2019-04-09T01:49:23.588Z,7.77
2019-04-09T01:52:08.314Z,7.20
2019-04-09T01:54:57.613Z,7.78
2019-04-09T01:58:02.298Z,7.58
2019-04-09T02:01:00.976Z,7.23
2019-04-09T02:03:56.392Z,6.92
2019-04-09T02:06:51.869Z,7.97
2019-04-09T02:09:36.881Z,9.10
2019-04-09T02:12:45.373Z,10.47
2019-04-09T02:15:37.429Z,9.48
2019-04-09T02:18:27.619Z,11.00
2019-04-09T02:21:16.963Z,9.85
2019-04-09T02:24:03.086Z,10.70
2019-04-09T02:26:58.307Z,10.70
2019-04-09T02:29:36.711Z,9.88
2019-04-09T02:32:23.979Z,9.08
2019-04-09T02:35:14.516Z,9.40
2019-04-09T02:38:03.884Z,9.65
2019-04-09T02:40:45.885Z,10.20
2019-04-09T02:43:34.969Z,9.93
2019-04-09T02:46:22.874Z,10.45
2019-04-09T02:49:21.051Z,7.87
2019-04-09T02:51:56.520Z,8.45
2019-04-09T02:54:33.950Z,9.43
2019-04-09T02:57:23.286Z,8.83
2019-04-09T03:00:03.305Z,8.97
2019-04-09T03:02:52.616Z,9.18
2019-04-09T03:05:43.221Z,8.93
2019-04-09T03:08:51.397Z,8.90
2019-04-09T03:11:56.369Z,10.50
2019-04-09T03:14:42.531Z,10.25
2019-04-09T03:17:38.432Z,11.35
2019-04-09T03:20:31.090Z,11.30
2019-04-09T03:23:29.003Z,10.17
2019-04-09T03:26:22.002Z,10.97
2019-04-09T03:29:24.528Z,9.30
2019-04-09T03:32:14.571Z,9.45
2019-04-09T03:35:07.490Z,10.63
2019-04-09T03:37:55.911Z,9.70
2019-04-09T03:40:43.572Z,9.70
2019-04-09T03:43:41.791Z,10.80
2019-04-09T03:46:43.403Z,11.70
2019-04-09T03:49:34.064Z,10.23
2019-04-09T03:52:23.426Z,10.55
2019-04-09T03:55:11.592Z,11.40
2019-04-09T03:58:22.327Z,10.93
2019-04-09T04:01:15.081Z,10.70
2019-04-09T04:03:58.909Z,12.13
2019-04-09T04:06:42.681Z,13.78
2019-04-09T04:09:34.831Z,15.65
2019-04-09T04:12:23.321Z,15.90
2019-04-09T04:15:09.936Z,14.75
2019-04-09T04:17:52.857Z,13.50
2019-04-09T04:20:41.755Z,14.85
2019-04-09T04:23:31.258Z,14.33
2019-04-09T04:26:15.885Z,13.72
2019-04-09T04:29:04.458Z,14.10
2019-04-09T04:31:52.831Z,13.07
2019-04-09T04:34:41.307Z,15.30
2019-04-09T04:37:33.489Z,13.95
2019-04-09T04:40:25.124Z,13.58
2019-04-09T04:43:19.436Z,12.95
2019-04-09T04:46:11.753Z,13.35
2019-04-09T04:49:06.963Z,14.50
2019-04-09T04:51:57.059Z,13.48
2019-04-09T04:54:46.141Z,12.40
2019-04-09T04:57:35.737Z,13.40
2019-04-09T05:00:26.337Z,14.53
2019-04-09T05:03:06.942Z,14.00
2019-04-09T05:05:59.715Z,14.50
2019-04-09T05:08:48.078Z,14.23
2019-04-09T05:11:35.253Z,13.03
2019-04-09T05:14:39.692Z,11.80
2019-04-09T05:17:16.557Z,12.60
2019-04-09T05:20:08.907Z,13.00
2019-04-09T05:23:13.689Z,13.48
2019-04-09T05:26:03.952Z,13.50
2019-04-09T05:29:00.164Z,13.00
2019-04-09T05:32:01.470Z,13.25
2019-04-09T05:34:52.238Z,12.47
2019-04-09T05:37:41.533Z,13.58
2019-04-09T05:40:43.300Z,13.85
2019-04-09T05:43:28.136Z,11.88
2019-04-09T05:46:07.677Z,12.70
2019-04-09T05:48:59.946Z,11.93
2019-04-09T05:51:51.518Z,13.10
2019-04-09T05:54:44.319Z,12.65
2019-04-09T05:57:41.370Z,13.30
2019-04-09T06:00:30.376Z,13.58
2019-04-09T06:03:16.490Z,12.98
2019-04-09T06:06:05.126Z,13.00
2019-04-09T06:08:54.923Z,14.15
2019-04-09T06:11:25.541Z,14.03
2019-04-09T06:13:56.010Z,14.70
2019-04-09T06:16:27.289Z,15.20
2019-04-09T06:18:58.687Z,15.55
2019-04-09T06:21:32.990Z,13.70
2019-04-09T06:24:02.577Z,14.97
2019-04-09T06:26:33.161Z,16.60
2019-04-09T06:29:14.653Z,13.70
2019-04-09T06:31:35.791Z,14.63
2019-04-09T06:34:24.436Z,15.23
2019-04-09T06:37:06.271Z,16.47
2019-04-09T06:39:43.900Z,15.17
2019-04-09T06:42:34.365Z,14.55
2019-04-09T06:45:18.667Z,15.40
2019-04-09T06:48:08.999Z,16.12
2019-04-09T06:51:07.861Z,16.87
2019-04-09T06:54:15.275Z,15.90
2019-04-09T06:57:05.968Z,16.13
2019-04-09T07:00:08.631Z,14.80
2019-04-09T07:02:55.778Z,14.85
2019-04-09T07:05:45.094Z,16.62
2019-04-09T07:08:23.604Z,14.75
2019-04-09T07:11:10.665Z,16.33
2019-04-09T07:13:46.864Z,15.05
2019-04-09T07:16:28.014Z,16.20
2019-04-09T07:19:06.150Z,16.73
2019-04-09T07:21:54.985Z,18.50
2019-04-09T07:24:42.396Z,18.70
2019-04-09T07:27:32.718Z,18.27
2019-04-09T07:30:25.543Z,16.87
2019-04-09T07:33:17.129Z,19.75
2019-04-09T07:36:05.632Z,19.57
2019-04-09T07:38:55.118Z,20.08
2019-04-09T07:41:49.463Z,18.87
2019-04-09T07:44:33.303Z,19.00
2019-04-09T07:47:21.525Z,20.77
2019-04-09T07:50:11.811Z,21.63
2019-04-09T07:53:01.139Z,21.10
2019-04-09T07:55:44.193Z,21.30
2019-04-09T07:58:25.406Z,21.40
2019-04-09T08:01:17.677Z,19.50
2019-04-09T08:04:07.630Z,18.82
2019-04-09T08:07:14.323Z,16.13
2019-04-09T08:10:06.644Z,16.57
2019-04-09T08:12:54.787Z,15.20
2019-04-09T08:15:56.135Z,17.07
2019-04-09T08:18:38.096Z,17.10
2019-04-09T08:21:29.231Z,17.48
2019-04-09T08:24:20.356Z,17.17
2019-04-09T08:27:11.206Z,17.30
2019-04-09T08:30:17.104Z,18.80
2019-04-09T08:32:47.256Z,19.33
2019-04-09T08:35:37.623Z,17.80
2019-04-09T08:38:30.869Z,17.80
2019-04-09T08:41:23.578Z,17.77
2019-04-09T08:44:19.166Z,19.27
2019-04-09T08:47:07.466Z,18.37
2019-04-09T08:49:51.964Z,17.07
2019-04-09T08:52:42.194Z,20.40
2019-04-09T08:55:16.246Z,17.03
2019-04-09T08:57:50.861Z,18.83
2019-04-09T09:01:00.760Z,18.50
2019-04-09T09:03:28.005Z,17.70
2019-04-09T09:06:24.551Z,15.80
2019-04-09T09:09:12.212Z,17.00
2019-04-09T09:12:05.626Z,15.90
2019-04-09T09:14:51.968Z,17.77
2019-04-09T09:17:47.214Z,12.93
2019-04-09T09:20:38.202Z,13.57
2019-04-09T09:23:22.398Z,12.70
2019-04-09T09:26:17.746Z,12.70
2019-04-09T09:28:57.984Z,12.27
2019-04-09T09:32:04.117Z,12.80
2019-04-09T09:35:02.969Z,12.77
2019-04-09T09:37:47.840Z,12.10
2019-04-09T09:40:34.454Z,13.20
2019-04-09T09:43:37.282Z,11.80
2019-04-09T09:46:29.916Z,11.40
2019-04-09T09:49:08.379Z,11.77
2019-04-09T09:52:00.821Z,11.33
2019-04-09T09:54:43.059Z,11.77
2019-04-09T09:57:36.257Z,11.27
2019-04-09T10:00:38.704Z,12.17
2019-04-09T10:03:24.249Z,12.70
2019-04-09T10:06:25.214Z,12.30
2019-04-09T10:09:21.434Z,10.30
2019-04-09T10:12:08.969Z,11.77
2019-04-09T10:14:54.449Z,11.57
2019-04-09T10:17:46.047Z,10.17
2019-04-09T10:20:48.420Z,10.73
2019-04-09T10:23:51.782Z,12.00
2019-04-09T10:26:39.145Z,11.10
2019-04-09T10:29:36.504Z,11.67
2019-04-09T10:32:21.813Z,11.83
2019-04-09T10:35:33.854Z,10.67
2019-04-09T10:38:22.611Z,10.00
2019-04-09T10:41:31.321Z,8.47
2019-04-09T10:44:07.684Z,7.70
2019-04-09T10:46:56.186Z,7.53
2019-04-09T10:49:49.179Z,8.77
2019-04-09T10:52:35.775Z,8.13
2019-04-09T10:55:43.841Z,9.40
2019-04-09T10:58:23.987Z,9.47
2019-04-09T11:01:09.763Z,9.37
2019-04-09T11:03:50.194Z,8.67
2019-04-09T11:06:39.142Z,9.40
2019-04-09T11:09:32.652Z,9.47
2019-04-09T11:12:26.079Z,10.17
2019-04-09T11:15:16.449Z,10.20
2019-04-09T11:17:55.409Z,12.20
2019-04-09T11:20:43.628Z,12.00
2019-04-09T11:23:35.847Z,11.77
2019-04-09T11:26:25.387Z,13.60
2019-04-09T11:29:10.851Z,12.90
2019-04-09T11:32:06.772Z,12.23
2019-04-09T11:35:02.282Z,13.40
2019-04-09T11:37:50.960Z,13.07
2019-04-09T11:40:31.749Z,14.00
2019-04-09T11:43:27.842Z,14.93
2019-04-09T11:46:12.850Z,15.80
2019-04-09T11:49:01.061Z,15.60
2019-04-09T11:51:54.139Z,18.10
2019-04-09T11:54:32.302Z,16.80
2019-04-09T11:57:24.854Z,32.10
2019-04-09T12:00:17.528Z,18.63
2019-04-09T12:03:07.175Z,17.83
2019-04-09T12:05:51.780Z,15.70
2019-04-09T12:08:36.958Z,15.80
2019-04-09T12:11:33.395Z,16.47
2019-04-09T12:14:18.137Z,16.07
2019-04-09T12:17:01.926Z,16.30
2019-04-09T12:19:44.558Z,15.87
2019-04-09T12:22:23.798Z,15.70
2019-04-09T12:25:13.234Z,16.40
2019-04-09T12:28:21.273Z,18.27
2019-04-09T12:31:08.136Z,16.33
2019-04-09T12:34:06.537Z,17.63
2019-04-09T12:36:51.155Z,17.93
2019-04-09T12:39:46.684Z,18.47
2019-04-09T12:42:26.101Z,18.23
2019-04-09T12:45:08.761Z,18.73
2019-04-09T12:47:48.537Z,19.23
2019-04-09T12:50:31.959Z,17.80
2019-04-09T12:53:12.188Z,19.00
2019-04-09T12:55:56.371Z,18.20
2019-04-09T12:58:36.704Z,18.40
2019-04-09T13:01:23.034Z,18.87
2019-04-09T13:04:01.790Z,18.90
2019-04-09T13:06:49.794Z,16.93
2019-04-09T13:09:26.703Z,15.50
2019-04-09T13:12:15.112Z,16.97
2019-04-09T13:15:08.097Z,17.10
2019-04-09T13:18:06.781Z,16.53
2019-04-09T13:20:55.543Z,15.90
2019-04-09T13:23:53.134Z,16.97
2019-04-09T13:26:48.024Z,13.53
2019-04-09T13:29:36.739Z,16.33
2019-04-09T13:32:35.419Z,15.90
2019-04-09T13:35:10.361Z,18.00
2019-04-09T13:38:06.330Z,17.17
2019-04-09T13:40:51.568Z,16.17
2019-04-09T13:43:31.271Z,16.47
2019-04-09T13:46:24.544Z,16.27
2019-04-09T13:49:13.176Z,15.63
2019-04-09T13:52:06.613Z,15.07
2019-04-09T13:54:37.611Z,15.20
2019-04-09T13:57:08.058Z,14.37
2019-04-09T13:59:38.467Z,15.17
2019-04-09T14:02:09.416Z,14.00
2019-04-09T14:04:44.464Z,14.90
2019-04-09T14:07:15.300Z,14.37
2019-04-09T14:09:46.044Z,15.63
2019-04-09T14:12:16.502Z,14.70
2019-04-09T14:14:47.046Z,15.90
2019-04-09T14:17:17.832Z,15.30
2019-04-09T14:19:54.605Z,15.57
2019-04-09T14:22:20.547Z,15.30
2019-04-09T14:24:50.959Z,15.17
2019-04-09T14:27:30.938Z,15.13
2019-04-09T14:29:53.625Z,14.10
2019-04-09T14:32:24.250Z,14.77
2019-04-09T14:34:55.178Z,14.53
2019-04-09T14:37:26.611Z,15.90
2019-04-09T14:39:57.308Z,13.47
2019-04-09T14:42:28.553Z,13.37
2019-04-09T14:45:01.442Z,14.60
2019-04-09T14:47:31.451Z,13.10
2019-04-09T14:50:02.113Z,13.37
2019-04-09T14:52:32.639Z,14.30
2019-04-09T14:55:02.993Z,12.97
2019-04-09T14:57:34.518Z,13.40
2019-04-09T15:00:07.783Z,12.77
2019-04-09T15:02:38.533Z,13.53
2019-04-09T15:05:09.874Z,13.07
2019-04-09T15:07:40.622Z,13.27
2019-04-09T15:10:11.527Z,12.80
2019-04-09T15:12:42.275Z,13.07
2019-04-09T15:15:13.638Z,13.10
2019-04-09T15:17:44.106Z,13.67
2019-04-09T15:20:15.431Z,11.87
2019-04-09T15:22:45.954Z,12.43
2019-04-09T15:25:16.329Z,11.37
2019-04-09T15:27:46.738Z,11.07
2019-04-09T15:30:17.662Z,11.97
2019-04-09T15:32:48.179Z,12.10
2019-04-09T15:35:18.701Z,12.07
2019-04-09T15:37:50.194Z,12.90
2019-04-09T15:40:21.571Z,11.47
2019-04-09T15:42:52.858Z,11.83
2019-04-09T15:45:23.431Z,12.20
2019-04-09T15:47:53.892Z,12.10
2019-04-09T15:50:24.325Z,11.30
2019-04-09T15:52:54.742Z,12.20
2019-04-09T15:55:25.479Z,12.20
2019-04-09T15:57:56.540Z,11.87
2019-04-09T16:00:27.020Z,11.73
2019-04-09T16:02:57.386Z,12.13
2019-04-09T16:05:27.793Z,13.70
2019-04-09T16:07:58.884Z,14.10
2019-04-09T16:10:30.609Z,15.17
2019-04-09T16:13:01.599Z,14.63
2019-04-09T16:15:32.163Z,14.30
2019-04-09T16:18:02.563Z,13.10
2019-04-09T16:20:32.977Z,14.90
2019-04-09T16:23:03.357Z,14.83
2019-04-09T16:25:34.292Z,13.80
2019-04-09T16:28:04.914Z,13.70
2019-04-09T16:30:35.375Z,14.80
2019-04-09T16:33:11.571Z,13.33
2019-04-09T16:35:39.105Z,13.80
2019-04-09T16:38:10.118Z,15.10
2019-04-09T16:40:41.367Z,15.23
2019-04-09T16:43:12.466Z,14.50
2019-04-09T16:45:43.933Z,15.30
2019-04-09T16:48:14.860Z,16.13
2019-04-09T16:50:46.001Z,16.17
2019-04-09T16:53:17.394Z,15.53
2019-04-09T16:55:48.555Z,16.03
2019-04-09T16:58:19.982Z,15.53
2019-04-09T17:00:50.498Z,14.97
2019-04-09T17:03:35.519Z,15.47
2019-04-09T17:05:54.062Z,15.63
2019-04-09T17:08:25.322Z,16.07
2019-04-09T17:10:55.782Z,16.27
2019-04-09T17:13:26.196Z,14.93
2019-04-09T17:15:56.697Z,15.40
2019-04-09T17:18:27.373Z,15.70
2019-04-09T17:20:58.205Z,14.77
2019-04-09T17:23:29.624Z,14.37
2019-04-09T17:26:01.842Z,14.33
2019-04-09T17:28:32.404Z,15.87
2019-04-09T17:31:03.003Z,15.50
2019-04-09T17:33:36.317Z,15.93
2019-04-09T17:36:07.150Z,14.30
2019-04-09T17:38:37.596Z,14.00
2019-04-09T17:41:08.288Z,16.23
2019-04-09T17:43:40.065Z,15.00
2019-04-09T17:46:11.009Z,14.03
2019-04-09T17:48:42.389Z,16.60
2019-04-09T17:51:13.001Z,15.07
2019-04-09T17:53:43.587Z,14.40
2019-04-09T17:56:14.069Z,14.97
2019-04-09T17:58:45.026Z,15.30
2019-04-09T18:01:15.519Z,13.93
2019-04-09T18:03:45.963Z,15.53
2019-04-09T18:06:16.405Z,15.17
2019-04-09T18:08:46.858Z,14.63
2019-04-09T18:11:18.477Z,15.80
2019-04-09T18:13:49.075Z,14.80
2019-04-09T18:16:20.482Z,14.93
2019-04-09T18:18:51.057Z,14.07
2019-04-09T18:21:22.557Z,14.30
2019-04-09T18:23:53.154Z,14.07
2019-04-09T18:26:23.573Z,14.53
2019-04-09T18:28:54.529Z,14.90
2019-04-09T18:31:32.004Z,14.50
2019-04-09T18:33:57.428Z,14.03
2019-04-09T18:36:28.325Z,15.20
2019-04-09T18:38:59.289Z,14.10
2019-04-09T18:41:30.511Z,15.50
2019-04-09T18:44:01.074Z,14.50
2019-04-09T18:46:32.318Z,16.10
2019-04-09T18:49:03.484Z,14.83
2019-04-09T18:51:34.113Z,13.10
2019-04-09T18:54:05.282Z,13.23
2019-04-09T18:56:35.851Z,13.20
2019-04-09T18:59:07.339Z,11.57
2019-04-09T19:01:37.937Z,13.00
2019-04-09T19:04:13.317Z,12.80
2019-04-09T19:06:40.840Z,11.97
2019-04-09T19:09:14.810Z,13.03
2019-04-09T19:11:45.665Z,11.27
2019-04-09T19:14:16.271Z,12.10
2019-04-09T19:16:46.723Z,13.60
2019-04-09T19:19:17.110Z,13.37
2019-04-09T19:21:47.561Z,13.70
2019-04-09T19:24:17.980Z,13.57
2019-04-09T19:26:48.403Z,13.33
2019-04-09T19:29:18.935Z,12.60
2019-04-09T19:31:49.485Z,12.20
2019-04-09T19:34:20.003Z,14.20
2019-04-09T19:36:50.534Z,13.83
2019-04-09T19:39:21.123Z,13.27
2019-04-09T19:42:06.196Z,14.40
2019-04-09T19:44:25.237Z,13.63
2019-04-09T19:46:55.788Z,13.03
2019-04-09T19:49:26.783Z,14.30
2019-04-09T19:51:57.786Z,13.47
2019-04-09T19:54:29.339Z,14.87
2019-04-09T19:56:59.957Z,14.90
2019-04-09T19:59:30.690Z,12.70
2019-04-09T20:02:01.115Z,13.90
2019-04-09T20:04:35.027Z,14.93
2019-04-09T20:07:05.873Z,14.00
2019-04-09T20:09:36.451Z,13.80
2019-04-09T20:12:07.073Z,13.80
2019-04-09T20:14:37.565Z,13.80
2019-04-09T20:17:09.575Z,14.60
2019-04-09T20:19:40.080Z,14.60
2019-04-09T20:22:10.778Z,14.10
2019-04-09T20:24:41.319Z,14.10
2019-04-09T20:27:12.727Z,14.87
2019-04-09T20:29:43.528Z,14.57
2019-04-09T20:32:14.590Z,12.67
2019-04-09T20:34:58.694Z,14.30
2019-04-09T20:37:17.223Z,13.70
2019-04-09T20:39:47.644Z,13.50
2019-04-09T20:42:18.939Z,13.77
2019-04-09T20:44:49.694Z,13.37
2019-04-09T20:47:20.486Z,13.47
2019-04-09T20:49:51.098Z,15.57
2019-04-09T20:52:21.695Z,15.90
2019-04-09T20:54:59.476Z,15.43
2019-04-09T20:57:30.007Z,16.33
2019-04-09T21:00:34.786Z,16.30
2019-04-09T21:03:22.798Z,14.93
2019-04-09T21:06:00.245Z,17.07
2019-04-09T21:08:26.234Z,16.27
2019-04-09T21:10:57.696Z,18.80
2019-04-09T21:13:29.104Z,17.83
2019-04-09T21:15:59.930Z,17.57
2019-04-09T21:18:31.381Z,17.23
2019-04-09T21:21:01.894Z,19.13
2019-04-09T21:23:32.486Z,16.77
2019-04-09T21:26:03.266Z,17.60
2019-04-09T21:28:33.697Z,18.53
2019-04-09T21:31:04.697Z,17.43
2019-04-09T21:33:35.847Z,18.43
2019-04-09T21:36:11.020Z,17.97
2019-04-09T21:38:38.462Z,18.77
2019-04-09T21:41:09.738Z,16.77
2019-04-09T21:43:40.442Z,19.07
2019-04-09T21:46:11.555Z,18.97
2019-04-09T21:48:43.060Z,18.13
2019-04-09T21:51:13.550Z,18.17
2019-04-09T21:53:44.071Z,17.73
2019-04-09T21:56:15.081Z,19.23
2019-04-09T21:58:45.738Z,19.93
2019-04-09T22:01:19.397Z,19.45
2019-04-09T22:03:50.616Z,18.40
2019-04-09T22:06:27.472Z,19.37
2019-04-09T22:08:54.367Z,19.82
2019-04-09T22:11:24.896Z,19.40
2019-04-09T22:13:56.111Z,18.07
2019-04-09T22:16:26.745Z,19.73
2019-04-09T22:18:57.123Z,18.87
2019-04-09T22:21:28.094Z,18.73
2019-04-09T22:23:59.499Z,19.03
2019-04-09T22:26:30.072Z,19.03
2019-04-09T22:29:00.975Z,19.03
2019-04-09T22:31:33.608Z,20.33
2019-04-09T22:34:03.731Z,21.17
2019-04-09T22:36:38.852Z,21.10
2019-04-09T22:39:08.515Z,20.10
2019-04-09T22:41:39.050Z,21.37
2019-04-09T22:44:10.261Z,21.40
2019-04-09T22:46:40.814Z,20.33
2019-04-09T22:49:11.210Z,19.97
2019-04-09T22:51:41.607Z,22.03
2019-04-09T22:54:11.986Z,20.23
2019-04-09T22:56:43.047Z,20.83
2019-04-09T22:59:13.540Z,21.87
2019-04-09T23:02:01.738Z,21.40
2019-04-09T23:04:46.464Z,22.73
2019-04-09T23:07:26.554Z,20.80
2019-04-09T23:10:21.925Z,20.43
2019-04-09T23:12:56.335Z,22.42
2019-04-09T23:15:39.337Z,22.10
2019-04-09T23:18:10.829Z,23.17
2019-04-09T23:20:41.346Z,22.60
2019-04-09T23:23:11.882Z,24.43
2019-04-09T23:25:42.889Z,23.40
2019-04-09T23:28:13.248Z,24.13
2019-04-09T23:30:43.667Z,22.80
2019-04-09T23:33:14.353Z,23.23
2019-04-09T23:35:45.477Z,23.77
2019-04-09T23:38:16.805Z,23.50
2019-04-09T23:40:47.877Z,24.60
2019-04-09T23:43:19.466Z,24.13
2019-04-09T23:45:50.670Z,24.00
2019-04-09T23:48:22.050Z,24.45
2019-04-09T23:50:52.520Z,25.33
2019-04-09T23:53:23.204Z,24.72
2019-04-09T23:55:53.769Z,24.10
2019-04-09T23:58:25.010Z,24.02
